Time;durP1;ratioP1;P1;durP2;ratioP2;P2;SDS_P1;SDS_P2;PMS_P1;PMS_P2;Temp;Humidity;BMP_temperature;BMP_pressure;BME280_temperature;BME280_humidity;BME280_pressure;Samples;Min_cycle;Max_cycle;Signal;HPM_P1;HPM_P2
2022/06/10 00:07:58;;;;;;;2.78;1.02;;;26.10;35.60;;;;;;20915954;28;20132;-59
2022/06/10 00:18:00;;;;;;;2.65;1.10;;;26.00;36.00;;;;;;20916195;28;20477;-59
2022/06/10 00:28:02;;;;;;;1.55;1.02;;;25.90;36.30;;;;;;20915069;28;20132;-69
2022/06/10 00:38:05;;;;;;;2.78;1.10;;;25.60;36.70;;;;;;20915224;28;20053;-60
2022/06/10 00:48:11;;;;;;;1.52;1.10;;;25.50;36.90;;;;;;20912980;28;20051;-68
2022/06/10 00:58:34;;;;;;;1.33;1.00;;;25.40;37.20;;;;;;20912942;28;20061;-69
2022/06/10 01:08:38;;;;;;;2.00;1.10;;;25.30;37.30;;;;;;20912272;28;20056;-68
2022/06/10 01:18:43;;;;;;;1.52;1.10;;;25.20;37.30;;;;;;20911878;28;20052;-68
2022/06/10 01:29:27;;;;;;;2.38;1.40;;;25.00;38.00;;;;;;20911843;28;20447;-69
2022/06/10 01:39:53;;;;;;;1.83;1.00;;;25.00;38.20;;;;;;20911232;28;20057;-68
2022/06/10 01:50:34;;;;;;;1.60;1.00;;;24.80;38.60;;;;;;20911638;28;20056;-60
2022/06/10 02:00:43;;;;;;;2.65;1.00;;;24.70;39.00;;;;;;20914541;28;20114;-65
2022/06/10 02:10:51;;;;;;;2.85;1.77;;;24.60;39.30;;;;;;20925611;28;20048;-59
2022/06/10 02:21:00;;;;;;;4.20;1.00;;;24.40;39.50;;;;;;20924380;28;20052;-60
2022/06/10 02:31:36;;;;;;;3.08;1.55;;;24.40;39.80;;;;;;20925119;28;20067;-62
2022/06/10 02:42:08;;;;;;;1.88;1.10;;;24.20;40.40;;;;;;20922851;28;20103;-67
2022/06/10 02:52:14;;;;;;;2.05;1.10;;;24.10;41.00;;;;;;20921873;28;20064;-67
2022/06/10 03:02:42;;;;;;;2.83;1.05;;;23.90;41.50;;;;;;20921095;28;20056;-65
2022/06/10 03:13:12;;;;;;;2.05;1.10;;;23.70;41.80;;;;;;20919985;28;20049;-59
2022/06/10 03:23:49;;;;;;;3.20;1.58;;;23.60;42.00;;;;;;20918450;28;20059;-68
2022/06/10 03:34:03;;;;;;;2.05;1.00;;;23.40;42.40;;;;;;20920397;28;20507;-65
2022/06/10 03:44:17;;;;;;;3.05;1.10;;;23.30;42.10;;;;;;20918362;28;20060;-59
2022/06/10 03:54:20;;;;;;;1.90;1.00;;;23.30;40.40;;;;;;20917292;28;20404;-60
2022/06/10 04:04:22;;;;;;;;;;;23.20;40.30;;;;;;20917071;28;20053;-59
2022/06/10 04:14:24;;;;;;;2.42;0.75;;;23.10;39.50;;;;;;20915709;28;19920;-58
2022/06/10 04:24:25;;;;;;;1.80;0.73;;;23.10;38.70;;;;;;20913024;28;20451;-65
2022/06/10 04:34:27;;;;;;;;;;;23.10;37.70;;;;;;20914961;28;20049;-58
2022/06/10 04:44:29;;;;;;;1.42;0.80;;;23.10;37.70;;;;;;20913653;28;19920;-65
2022/06/10 04:54:31;;;;;;;2.20;1.17;;;23.10;36.70;;;;;;20912896;28;20170;-59
2022/06/10 05:04:33;;;;;;;2.77;1.07;;;23.20;36.30;;;;;;20912644;28;20056;-66
2022/06/10 05:14:35;;;;;;;6.67;1.27;;;23.20;35.80;;;;;;20912303;28;20132;-61
2022/06/10 05:24:37;;;;;;;1.73;0.90;;;23.20;35.60;;;;;;20911559;28;20053;-60
2022/06/10 05:34:44;;;;;;;1.83;1.00;;;23.30;35.30;;;;;;20915162;28;20041;-57
2022/06/10 05:44:48;;;;;;;4.40;1.10;;;23.40;35.10;;;;;;20927478;28;20053;-58
2022/06/10 05:54:53;;;;;;;4.05;1.40;;;23.40;35.10;;;;;;20926869;28;20051;-67
2022/06/10 06:04:55;;;;;;;3.55;1.10;;;23.50;35.10;;;;;;20925973;28;20065;-65
2022/06/10 06:14:56;;;;;;;4.30;1.10;;;23.50;35.80;;;;;;20925395;28;20045;-58
2022/06/10 06:24:58;;;;;;;3.88;1.30;;;23.60;35.30;;;;;;20924223;28;20063;-58
2022/06/10 06:35:00;;;;;;;3.60;1.30;;;23.60;35.30;;;;;;20920623;28;20049;-59
2022/06/10 06:45:03;;;;;;;3.43;1.10;;;23.70;34.70;;;;;;20921124;28;20057;-57
2022/06/10 06:55:05;;;;;;;3.40;0.80;;;24.30;34.40;;;;;;20921784;28;20045;-58
2022/06/10 07:05:08;;;;;;;1.73;0.70;;;25.00;33.40;;;;;;20917975;28;20413;-58
2022/06/10 07:15:11;;;;;;;7.88;1.25;;;25.60;31.50;;;;;;20917961;28;20111;-58
2022/06/10 07:25:14;;;;;;;3.55;1.02;;;26.10;30.90;;;;;;20920290;28;20056;-57
2022/06/10 07:35:18;;;;;;;3.67;0.90;;;26.50;30.30;;;;;;20918779;28;20144;-58
2022/06/10 07:45:20;;;;;;;2.83;0.90;;;;;;;;;;20918484;28;20056;-57
2022/06/10 07:55:22;;;;;;;1.60;1.15;;;;;;;;;;20916876;28;20444;-59
2022/06/10 08:05:24;;;;;;;4.35;1.35;;;;;;;;;;20920141;28;20053;-59
2022/06/10 08:15:27;;;;;;;3.45;0.90;;;;;;;;;;20974768;28;20049;-68
2022/06/10 08:25:29;;;;;;;2.80;0.80;;;;;;;;;;20994177;28;20465;-69
2022/06/10 08:35:32;;;;;;;5.28;1.00;;;;;;;;;;20997363;28;20049;-67
2022/06/10 08:45:39;;;;;;;4.43;1.30;;;;;;;;;;20996525;28;20060;-63
2022/06/10 08:55:46;;;;;;;3.55;1.20;;;;;;;;;;20995932;28;20045;-66
2022/06/10 09:05:53;;;;;;;5.47;1.20;;;;;;;;;;20995220;28;20059;-60
2022/06/10 09:15:59;;;;;;;6.28;1.38;;;;;;;;;;20994535;28;20507;-63
2022/06/10 09:26:08;;;;;;;2.22;1.02;;;;;;;;;;20994268;28;20056;-60
2022/06/10 09:36:20;;;;;;;2.92;0.90;;;;;;;;;;20975701;28;20500;-57
2022/06/10 09:46:28;;;;;;;7.18;1.17;;;;;;;;;;20993580;28;20057;-58
2022/06/10 09:56:34;;;;;;;3.53;1.10;;;;;;;;;;20950755;28;20045;-57
2022/06/10 10:06:39;;;;;;;2.25;1.10;;;;;;;;;;20908354;28;20049;-59
2022/06/10 10:17:16;;;;;;;2.80;1.10;;;;;;;;;;20877582;28;20501;-61
2022/06/10 10:27:23;;;;;;;3.90;0.80;;;;;;;;;;20788116;28;20053;-56
2022/06/10 10:37:29;;;;;;;2.97;1.17;;;;;;;;;;20825753;28;20053;-57
2022/06/10 10:47:32;;;;;;;5.22;1.00;;;;;;;;;;20829528;28;20053;-56
2022/06/10 10:57:33;;;;;;;3.92;0.95;;;;;;;;;;20833770;28;20133;-56
2022/06/10 11:07:35;;;;;;;5.95;1.00;;;;;;;;;;20837084;28;20428;-54
2022/06/10 11:17:37;;;;;;;3.67;1.10;;;;;;;;;;20836653;28;20049;-56
2022/06/10 11:27:40;;;;;;;1.55;0.80;;;;;;;;;;20836314;28;20103;-55
2022/06/10 11:37:43;;;;;;;2.50;1.00;;;;;;;;;;20834795;28;20049;-60
2022/06/10 11:48:00;;;;;;;3.15;1.10;;;31.70;18.90;;;;;;20835401;28;20046;-58
2022/06/10 12:09:15;;;;;;;3.42;0.80;;;31.70;18.20;;;;;;20835248;28;20060;-65
2022/06/10 12:19:27;;;;;;;4.75;0.80;;;31.80;16.20;;;;;;20833357;28;20509;-66
2022/06/10 12:29:44;;;;;;;3.88;1.08;;;31.80;17.60;;;;;;20832796;28;20050;-65
2022/06/10 12:40:21;;;;;;;4.95;1.10;;;31.90;18.20;;;;;;20831625;28;20061;-66
2022/06/10 12:50:35;;;;;;;4.85;1.00;;;32.10;17.90;;;;;;20821680;28;20058;-65
2022/06/10 13:00:42;;;;;;;2.33;0.85;;;32.40;17.40;;;;;;20821585;28;20522;-66
2022/06/10 13:10:45;;;;;;;2.72;1.00;;;32.60;17.50;;;;;;20821979;28;20050;-66
2022/06/10 13:20:50;;;;;;;6.20;0.75;;;32.70;17.40;;;;;;20824048;28;20054;-65
2022/06/10 13:31:05;;;;;;;2.20;0.70;;;33.20;16.90;;;;;;20830027;28;20045;-66
2022/06/10 13:52:34;;;;;;;2.08;0.70;;;32.90;17.50;;;;;;20819787;28;20555;-66
2022/06/10 14:02:39;;;;;;;2.22;0.60;;;33.10;17.50;;;;;;20832753;28;20156;-65
2022/06/10 14:12:57;;;;;;;1.80;0.70;;;33.20;18.10;;;;;;20834362;28;20057;-65
2022/06/10 14:23:20;;;;;;;2.97;1.50;;;33.20;18.90;;;;;;20837400;28;20057;-66
2022/06/10 14:33:37;;;;;;;15.35;6.40;;;33.40;18.70;;;;;;20840868;28;20054;-65
2022/06/10 14:43:58;;;;;;;4.82;2.00;;;33.40;18.60;;;;;;20840442;28;20053;-65
2022/06/10 14:54:19;;;;;;;5.22;1.70;;;33.60;19.70;;;;;;20838937;28;20049;-64
2022/06/10 15:04:20;;;;;;;4.65;2.17;;;33.70;20.80;;;;;;20838591;28;20196;-64
2022/06/10 15:14:22;;;;;;;1.30;0.80;;;33.70;20.30;;;;;;20837886;28;20045;-62
2022/06/10 15:24:25;;;;;;;2.70;1.10;;;34.00;20.50;;;;;;20837216;28;20049;-62
2022/06/10 15:34:27;;;;;;;3.10;1.13;;;33.90;20.30;;;;;;20836324;28;20409;-59
2022/06/10 15:44:31;;;;;;;3.75;1.40;;;34.00;20.00;;;;;;20836150;28;20050;-59
2022/06/10 16:05:00;;;;;;;2.45;0.77;;;33.80;19.90;;;;;;20836106;28;20093;-60
2022/06/10 16:15:01;;;;;;;3.08;0.60;;;34.10;19.40;;;;;;20833562;28;20096;-59
2022/06/10 16:25:03;;;;;;;8.45;2.63;;;34.00;19.50;;;;;;20832972;28;20528;-61
2022/06/10 16:35:09;;;;;;;3.95;0.90;;;34.30;20.00;;;;;;20832399;28;20061;-61
2022/06/10 16:45:24;;;;;;;2.90;0.95;;;34.00;19.70;;;;;;20832537;28;20437;-60
2022/06/10 16:55:28;;;;;;;3.47;0.90;;;34.00;19.70;;;;;;20814178;28;20053;-61
2022/06/10 17:05:37;;;;;;;2.83;1.30;;;34.00;19.80;;;;;;20829404;28;20049;-58
2022/06/10 17:15:38;;;;;;;6.07;1.30;;;33.90;20.30;;;;;;20832705;28;20053;-61
2022/06/10 17:25:52;;;;;;;2.85;0.90;;;34.00;20.20;;;;;;20829612;28;20054;-58
2022/06/10 17:35:56;;;;;;;4.60;1.02;;;34.00;19.90;;;;;;20840966;28;20054;-60
2022/06/10 17:45:58;;;;;;;2.13;1.25;;;33.80;20.20;;;;;;20846274;28;20095;-61
2022/06/10 17:55:59;;;;;;;3.55;1.30;;;33.80;20.50;;;;;;20843991;28;20486;-61
2022/06/10 18:06:01;;;;;;;2.40;1.08;;;33.70;20.60;;;;;;20843428;28;20057;-61
2022/06/10 18:16:05;;;;;;;2.97;1.55;;;33.70;20.50;;;;;;20842393;28;20041;-60
2022/06/10 18:26:22;;;;;;;4.70;0.90;;;33.60;20.60;;;;;;20841804;28;20098;-59
2022/06/10 18:36:25;;;;;;;1.95;0.80;;;33.70;20.70;;;;;;20840556;28;20041;-62
2022/06/10 18:46:27;;;;;;;5.53;1.98;;;33.60;20.70;;;;;;20839075;28;20053;-61
2022/06/10 18:56:32;;;;;;;8.57;1.50;;;33.50;20.90;;;;;;20839400;28;20508;-60
2022/06/10 19:06:33;;;;;;;4.60;1.70;;;33.40;20.90;;;;;;20838884;28;20557;-62
2022/06/10 19:16:36;;;;;;;7.82;1.50;;;33.30;21.50;;;;;;20839052;28;20049;-62
2022/06/10 19:26:37;;;;;;;3.60;1.50;;;33.20;21.50;;;;;;20837090;28;20131;-62
2022/06/10 19:36:44;;;;;;;9.68;1.80;;;33.10;21.50;;;;;;20836239;28;20049;-62
2022/06/10 19:46:45;;;;;;;3.75;1.75;;;32.80;22.00;;;;;;20835082;28;20096;-60
2022/06/10 19:56:47;;;;;;;6.65;2.33;;;32.60;22.10;;;;;;20834780;28;20469;-60
2022/06/10 20:06:58;;;;;;;7.50;2.90;;;32.30;22.50;;;;;;20834191;28;20057;-61
2022/06/10 20:17:01;;;;;;;7.55;3.30;;;32.10;23.10;;;;;;20832786;28;20505;-60
2022/06/10 20:27:02;;;;;;;7.13;3.83;;;31.90;23.60;;;;;;20833074;28;20149;-61
2022/06/10 20:37:06;;;;;;;12.75;6.60;;;31.60;23.90;;;;;;20833062;28;20092;-62
2022/06/10 20:47:12;;;;;;;11.77;6.20;;;31.60;25.00;;;;;;20831873;28;20089;-60
2022/06/10 20:57:15;;;;;;;12.93;4.25;;;31.60;25.60;;;;;;20831558;28;20076;-61
2022/06/10 21:07:28;;;;;;;11.18;4.45;;;31.10;26.60;;;;;;20827796;28;20104;-61
2022/06/10 21:17:39;;;;;;;7.35;4.53;;;30.90;26.90;;;;;;20830968;28;20050;-62
2022/06/10 21:27:40;;;;;;;9.95;5.05;;;30.80;27.20;;;;;;20829695;28;20081;-61
2022/06/10 21:37:42;;;;;;;11.50;4.70;;;30.60;27.70;;;;;;20828177;28;20057;-61
2022/06/10 21:47:46;;;;;;;6.55;3.00;;;30.30;28.20;;;;;;20829197;28;20054;-60
2022/06/10 21:57:48;;;;;;;8.35;4.38;;;30.10;27.80;;;;;;20828180;28;20046;-60
2022/06/10 22:07:50;;;;;;;11.73;7.78;;;29.60;27.70;;;;;;20828837;28;20049;-59
2022/06/10 22:17:55;;;;;;;6.45;2.60;;;29.50;28.00;;;;;;20832195;28;20073;-59
2022/06/10 22:27:58;;;;;;;6.78;2.92;;;29.30;27.90;;;;;;20842764;28;20104;-60
2022/06/10 22:38:01;;;;;;;3.67;2.33;;;28.90;28.30;;;;;;20842024;28;20052;-59
2022/06/10 22:48:03;;;;;;;6.88;5.00;;;28.60;28.20;;;;;;20840911;28;20053;-59
2022/06/10 22:58:12;;;;;;;4.20;2.70;;;28.50;28.70;;;;;;20840148;28;20069;-59
2022/06/10 23:08:21;;;;;;;4.30;2.53;;;28.40;29.00;;;;;;20838248;28;20087;-60
2022/06/10 23:18:43;;;;;;;7.72;1.92;;;28.20;29.10;;;;;;20838309;28;20104;-59
2022/06/10 23:28:46;;;;;;;7.50;2.35;;;28.20;28.90;;;;;;20838200;28;20072;-59
2022/06/10 23:38:49;;;;;;;6.43;2.70;;;27.90;29.30;;;;;;20837143;28;20042;-59
2022/06/10 23:59:15;;;;;;;7.07;2.40;;;28.30;27.60;;;;;;20835225;28;20099;-61
